sensor_id;sensor_type;location;lat;lon;timestamp;P1;durP1;ratioP1;P2;durP2;ratioP2
17235;SDS011;8734;59.272;17.780;2023-02-28T00:01:25;2.00;;;1.60;;
17235;SDS011;8734;59.272;17.780;2023-02-28T00:03:56;1.67;;;1.40;;
17235;SDS011;8734;59.272;17.780;2023-02-28T00:06:25;3.80;;;1.30;;
17235;SDS011;8734;59.272;17.780;2023-02-28T00:08:54;2.83;;;1.70;;
17235;SDS011;8734;59.272;17.780;2023-02-28T00:11:23;5.13;;;1.73;;
17235;SDS011;8734;59.272;17.780;2023-02-28T00:13:51;2.67;;;1.70;;
17235;SDS011;8734;59.272;17.780;2023-02-28T00:16:20;2.93;;;1.67;;
17235;SDS011;8734;59.272;17.780;2023-02-28T00:18:49;6.90;;;1.30;;
17235;SDS011;8734;59.272;17.780;2023-02-28T00:21:19;2.30;;;1.50;;
17235;SDS011;8734;59.272;17.780;2023-02-28T00:23:48;2.10;;;1.37;;
17235;SDS011;8734;59.272;17.780;2023-02-28T00:26:16;4.80;;;1.87;;
17235;SDS011;8734;59.272;17.780;2023-02-28T00:28:47;2.53;;;1.40;;
17235;SDS011;8734;59.272;17.780;2023-02-28T00:31:15;1.70;;;1.13;;
17235;SDS011;8734;59.272;17.780;2023-02-28T00:33:44;2.30;;;1.40;;
17235;SDS011;8734;59.272;17.780;2023-02-28T00:36:13;3.57;;;1.40;;
17235;SDS011;8734;59.272;17.780;2023-02-28T00:38:42;2.73;;;1.60;;
17235;SDS011;8734;59.272;17.780;2023-02-28T00:41:10;1.43;;;1.33;;
17235;SDS011;8734;59.272;17.780;2023-02-28T00:43:39;2.30;;;1.60;;
17235;SDS011;8734;59.272;17.780;2023-02-28T00:46:08;1.33;;;1.00;;
17235;SDS011;8734;59.272;17.780;2023-02-28T00:48:36;1.50;;;1.20;;
17235;SDS011;8734;59.272;17.780;2023-02-28T00:51:05;1.90;;;1.33;;
17235;SDS011;8734;59.272;17.780;2023-02-28T00:53:33;2.33;;;1.23;;
17235;SDS011;8734;59.272;17.780;2023-02-28T00:56:03;2.73;;;1.30;;
17235;SDS011;8734;59.272;17.780;2023-02-28T00:58:32;2.30;;;1.50;;
17235;SDS011;8734;59.272;17.780;2023-02-28T01:01:00;2.43;;;1.30;;
17235;SDS011;8734;59.272;17.780;2023-02-28T01:03:28;1.73;;;1.30;;
17235;SDS011;8734;59.272;17.780;2023-02-28T01:05:57;3.33;;;1.20;;
17235;SDS011;8734;59.272;17.780;2023-02-28T01:08:26;1.70;;;1.27;;
17235;SDS011;8734;59.272;17.780;2023-02-28T01:10:54;2.20;;;1.60;;
17235;SDS011;8734;59.272;17.780;2023-02-28T01:13:24;5.03;;;1.40;;
17235;SDS011;8734;59.272;17.780;2023-02-28T01:15:54;1.70;;;1.17;;
17235;SDS011;8734;59.272;17.780;2023-02-28T01:18:23;2.37;;;1.50;;
17235;SDS011;8734;59.272;17.780;2023-02-28T01:20:52;1.40;;;1.20;;
17235;SDS011;8734;59.272;17.780;2023-02-28T01:23:21;2.73;;;1.30;;
17235;SDS011;8734;59.272;17.780;2023-02-28T01:25:50;1.37;;;1.10;;
17235;SDS011;8734;59.272;17.780;2023-02-28T01:28:19;7.53;;;1.17;;
17235;SDS011;8734;59.272;17.780;2023-02-28T01:30:49;2.10;;;1.27;;
17235;SDS011;8734;59.272;17.780;2023-02-28T01:33:18;2.63;;;1.17;;
17235;SDS011;8734;59.272;17.780;2023-02-28T01:35:47;1.50;;;1.13;;
17235;SDS011;8734;59.272;17.780;2023-02-28T01:38:16;1.17;;;1.07;;
17235;SDS011;8734;59.272;17.780;2023-02-28T01:40:49;4.17;;;1.23;;
17235;SDS011;8734;59.272;17.780;2023-02-28T01:43:20;1.77;;;1.10;;
17235;SDS011;8734;59.272;17.780;2023-02-28T01:45:52;1.97;;;1.03;;
17235;SDS011;8734;59.272;17.780;2023-02-28T01:48:23;1.97;;;1.20;;
17235;SDS011;8734;59.272;17.780;2023-02-28T01:50:55;2.47;;;1.30;;
17235;SDS011;8734;59.272;17.780;2023-02-28T01:53:29;2.90;;;1.00;;
17235;SDS011;8734;59.272;17.780;2023-02-28T01:56:00;2.03;;;1.30;;
17235;SDS011;8734;59.272;17.780;2023-02-28T01:58:31;1.73;;;1.00;;
17235;SDS011;8734;59.272;17.780;2023-02-28T02:01:01;1.50;;;0.93;;
17235;SDS011;8734;59.272;17.780;2023-02-28T02:03:29;3.60;;;1.40;;
17235;SDS011;8734;59.272;17.780;2023-02-28T02:05:58;3.07;;;0.77;;
17235;SDS011;8734;59.272;17.780;2023-02-28T02:08:28;1.00;;;0.90;;
17235;SDS011;8734;59.272;17.780;2023-02-28T02:10:57;1.63;;;1.00;;
17235;SDS011;8734;59.272;17.780;2023-02-28T02:13:30;1.50;;;1.00;;
17235;SDS011;8734;59.272;17.780;2023-02-28T02:16:13;0.70;;;0.70;;
17235;SDS011;8734;59.272;17.780;2023-02-28T02:18:52;0.60;;;0.60;;
17235;SDS011;8734;59.272;17.780;2023-02-28T02:21:33;1.77;;;1.00;;
17235;SDS011;8734;59.272;17.780;2023-02-28T02:27:48;1.03;;;0.70;;
17235;SDS011;8734;59.272;17.780;2023-02-28T02:30:37;0.63;;;0.63;;
17235;SDS011;8734;59.272;17.780;2023-02-28T02:33:35;1.30;;;0.80;;
17235;SDS011;8734;59.272;17.780;2023-02-28T02:36:25;0.83;;;0.60;;
17235;SDS011;8734;59.272;17.780;2023-02-28T02:38:58;1.23;;;0.70;;
17235;SDS011;8734;59.272;17.780;2023-02-28T02:41:33;0.77;;;0.70;;
17235;SDS011;8734;59.272;17.780;2023-02-28T02:44:10;1.23;;;0.90;;
17235;SDS011;8734;59.272;17.780;2023-02-28T02:46:41;0.80;;;0.80;;
17235;SDS011;8734;59.272;17.780;2023-02-28T02:49:16;1.17;;;0.90;;
17235;SDS011;8734;59.272;17.780;2023-02-28T02:51:50;0.60;;;0.60;;
17235;SDS011;8734;59.272;17.780;2023-02-28T02:54:20;0.90;;;0.70;;
17235;SDS011;8734;59.272;17.780;2023-02-28T02:56:55;1.17;;;0.80;;
17235;SDS011;8734;59.272;17.780;2023-02-28T02:59:28;2.83;;;0.80;;
17235;SDS011;8734;59.272;17.780;2023-02-28T03:01:58;1.27;;;0.60;;
17235;SDS011;8734;59.272;17.780;2023-02-28T03:04:30;1.30;;;0.47;;
17235;SDS011;8734;59.272;17.780;2023-02-28T03:07:03;1.63;;;0.50;;
17235;SDS011;8734;59.272;17.780;2023-02-28T03:09:32;0.57;;;0.57;;
17235;SDS011;8734;59.272;17.780;2023-02-28T03:12:03;0.70;;;0.67;;
17235;SDS011;8734;59.272;17.780;2023-02-28T03:14:37;0.57;;;0.50;;
17235;SDS011;8734;59.272;17.780;2023-02-28T03:17:38;0.70;;;0.70;;
17235;SDS011;8734;59.272;17.780;2023-02-28T03:20:26;0.60;;;0.60;;
17235;SDS011;8734;59.272;17.780;2023-02-28T03:23:07;1.53;;;0.70;;
17235;SDS011;8734;59.272;17.780;2023-02-28T03:25:46;1.30;;;0.80;;
17235;SDS011;8734;59.272;17.780;2023-02-28T03:28:27;0.50;;;0.50;;
17235;SDS011;8734;59.272;17.780;2023-02-28T03:31:03;0.90;;;0.83;;
17235;SDS011;8734;59.272;17.780;2023-02-28T03:33:38;0.60;;;0.60;;
17235;SDS011;8734;59.272;17.780;2023-02-28T03:36:12;0.90;;;0.47;;
17235;SDS011;8734;59.272;17.780;2023-02-28T03:38:45;1.27;;;0.90;;
17235;SDS011;8734;59.272;17.780;2023-02-28T03:41:17;0.70;;;0.50;;
17235;SDS011;8734;59.272;17.780;2023-02-28T03:43:49;2.23;;;0.60;;
17235;SDS011;8734;59.272;17.780;2023-02-28T03:46:25;0.67;;;0.67;;
17235;SDS011;8734;59.272;17.780;2023-02-28T03:48:59;0.73;;;0.63;;
17235;SDS011;8734;59.272;17.780;2023-02-28T03:51:32;0.87;;;0.60;;
17235;SDS011;8734;59.272;17.780;2023-02-28T03:54:04;0.80;;;0.60;;
17235;SDS011;8734;59.272;17.780;2023-02-28T03:56:38;0.80;;;0.60;;
17235;SDS011;8734;59.272;17.780;2023-02-28T03:59:12;0.57;;;0.50;;
17235;SDS011;8734;59.272;17.780;2023-02-28T04:01:45;0.77;;;0.60;;
17235;SDS011;8734;59.272;17.780;2023-02-28T04:04:15;2.87;;;0.67;;
17235;SDS011;8734;59.272;17.780;2023-02-28T04:06:44;5.00;;;0.60;;
17235;SDS011;8734;59.272;17.780;2023-02-28T04:09:15;0.60;;;0.50;;
17235;SDS011;8734;59.272;17.780;2023-02-28T04:11:44;1.80;;;0.83;;
17235;SDS011;8734;59.272;17.780;2023-02-28T04:14:16;0.50;;;0.50;;
17235;SDS011;8734;59.272;17.780;2023-02-28T04:16:44;0.60;;;0.60;;
17235;SDS011;8734;59.272;17.780;2023-02-28T04:19:13;0.77;;;0.67;;
17235;SDS011;8734;59.272;17.780;2023-02-28T04:21:43;1.83;;;0.70;;
17235;SDS011;8734;59.272;17.780;2023-02-28T04:24:13;2.17;;;0.73;;
17235;SDS011;8734;59.272;17.780;2023-02-28T04:26:46;0.70;;;0.50;;
17235;SDS011;8734;59.272;17.780;2023-02-28T04:29:18;1.43;;;0.50;;
17235;SDS011;8734;59.272;17.780;2023-02-28T04:31:48;0.67;;;0.60;;
17235;SDS011;8734;59.272;17.780;2023-02-28T04:34:16;0.50;;;0.40;;
17235;SDS011;8734;59.272;17.780;2023-02-28T04:36:45;0.63;;;0.63;;
17235;SDS011;8734;59.272;17.780;2023-02-28T04:39:34;1.33;;;0.70;;
17235;SDS011;8734;59.272;17.780;2023-02-28T04:42:03;5.17;;;0.53;;
17235;SDS011;8734;59.272;17.780;2023-02-28T04:44:31;0.90;;;0.50;;
17235;SDS011;8734;59.272;17.780;2023-02-28T04:47:00;2.80;;;1.10;;
17235;SDS011;8734;59.272;17.780;2023-02-28T04:49:28;3.30;;;0.60;;
17235;SDS011;8734;59.272;17.780;2023-02-28T04:51:57;3.67;;;0.50;;
17235;SDS011;8734;59.272;17.780;2023-02-28T04:54:25;0.60;;;0.60;;
17235;SDS011;8734;59.272;17.780;2023-02-28T04:56:56;0.60;;;0.50;;
17235;SDS011;8734;59.272;17.780;2023-02-28T04:59:24;0.70;;;0.70;;
17235;SDS011;8734;59.272;17.780;2023-02-28T05:01:53;0.57;;;0.53;;
17235;SDS011;8734;59.272;17.780;2023-02-28T05:04:21;2.00;;;0.70;;
17235;SDS011;8734;59.272;17.780;2023-02-28T05:06:50;0.63;;;0.63;;
17235;SDS011;8734;59.272;17.780;2023-02-28T05:09:18;0.97;;;0.73;;
17235;SDS011;8734;59.272;17.780;2023-02-28T05:11:47;1.10;;;0.90;;
17235;SDS011;8734;59.272;17.780;2023-02-28T05:14:17;0.50;;;0.50;;
17235;SDS011;8734;59.272;17.780;2023-02-28T05:16:45;1.73;;;0.70;;
17235;SDS011;8734;59.272;17.780;2023-02-28T05:19:14;0.50;;;0.50;;
17235;SDS011;8734;59.272;17.780;2023-02-28T05:21:48;0.70;;;0.60;;
17235;SDS011;8734;59.272;17.780;2023-02-28T05:24:18;0.83;;;0.50;;
17235;SDS011;8734;59.272;17.780;2023-02-28T05:26:49;0.73;;;0.70;;
17235;SDS011;8734;59.272;17.780;2023-02-28T05:29:20;0.60;;;0.60;;
17235;SDS011;8734;59.272;17.780;2023-02-28T05:31:49;2.00;;;0.83;;
17235;SDS011;8734;59.272;17.780;2023-02-28T05:34:18;1.50;;;0.60;;
17235;SDS011;8734;59.272;17.780;2023-02-28T05:36:47;1.80;;;0.60;;
17235;SDS011;8734;59.272;17.780;2023-02-28T05:39:15;0.53;;;0.40;;
17235;SDS011;8734;59.272;17.780;2023-02-28T05:41:43;0.70;;;0.60;;
17235;SDS011;8734;59.272;17.780;2023-02-28T05:44:12;0.60;;;0.60;;
17235;SDS011;8734;59.272;17.780;2023-02-28T05:46:41;0.60;;;0.60;;
17235;SDS011;8734;59.272;17.780;2023-02-28T05:49:09;0.70;;;0.70;;
17235;SDS011;8734;59.272;17.780;2023-02-28T05:51:38;0.60;;;0.60;;
17235;SDS011;8734;59.272;17.780;2023-02-28T05:54:06;2.90;;;0.70;;
17235;SDS011;8734;59.272;17.780;2023-02-28T05:56:35;1.17;;;0.60;;
17235;SDS011;8734;59.272;17.780;2023-02-28T05:59:05;0.50;;;0.50;;
17235;SDS011;8734;59.272;17.780;2023-02-28T06:01:34;2.73;;;0.70;;
17235;SDS011;8734;59.272;17.780;2023-02-28T06:04:06;0.90;;;0.80;;
17235;SDS011;8734;59.272;17.780;2023-02-28T06:06:48;0.70;;;0.63;;
17235;SDS011;8734;59.272;17.780;2023-02-28T06:09:18;1.20;;;0.63;;
17235;SDS011;8734;59.272;17.780;2023-02-28T06:11:46;1.87;;;0.60;;
17235;SDS011;8734;59.272;17.780;2023-02-28T06:14:15;0.60;;;0.60;;
17235;SDS011;8734;59.272;17.780;2023-02-28T06:16:45;1.40;;;0.80;;
17235;SDS011;8734;59.272;17.780;2023-02-28T06:19:15;0.67;;;0.40;;
17235;SDS011;8734;59.272;17.780;2023-02-28T06:21:43;0.67;;;0.60;;
17235;SDS011;8734;59.272;17.780;2023-02-28T06:24:12;0.80;;;0.60;;
17235;SDS011;8734;59.272;17.780;2023-02-28T06:26:40;1.27;;;0.60;;
17235;SDS011;8734;59.272;17.780;2023-02-28T06:29:08;1.03;;;0.73;;
17235;SDS011;8734;59.272;17.780;2023-02-28T06:31:37;1.17;;;0.67;;
17235;SDS011;8734;59.272;17.780;2023-02-28T06:34:06;3.33;;;0.63;;
17235;SDS011;8734;59.272;17.780;2023-02-28T06:36:35;0.70;;;0.70;;
17235;SDS011;8734;59.272;17.780;2023-02-28T06:39:05;1.57;;;0.73;;
17235;SDS011;8734;59.272;17.780;2023-02-28T06:41:34;1.40;;;0.73;;
17235;SDS011;8734;59.272;17.780;2023-02-28T06:44:20;0.67;;;0.67;;
17235;SDS011;8734;59.272;17.780;2023-02-28T06:46:48;0.50;;;0.50;;
17235;SDS011;8734;59.272;17.780;2023-02-28T06:49:17;1.83;;;0.80;;
17235;SDS011;8734;59.272;17.780;2023-02-28T06:51:47;1.23;;;0.70;;
17235;SDS011;8734;59.272;17.780;2023-02-28T06:54:16;1.80;;;0.43;;
17235;SDS011;8734;59.272;17.780;2023-02-28T06:56:44;0.73;;;0.50;;
17235;SDS011;8734;59.272;17.780;2023-02-28T06:59:13;0.80;;;0.60;;
17235;SDS011;8734;59.272;17.780;2023-02-28T07:01:41;0.90;;;0.60;;
17235;SDS011;8734;59.272;17.780;2023-02-28T07:04:09;1.03;;;0.67;;
17235;SDS011;8734;59.272;17.780;2023-02-28T07:06:40;1.57;;;0.80;;
17235;SDS011;8734;59.272;17.780;2023-02-28T07:09:09;1.20;;;0.80;;
17235;SDS011;8734;59.272;17.780;2023-02-28T07:11:38;2.80;;;0.97;;
17235;SDS011;8734;59.272;17.780;2023-02-28T07:14:07;2.17;;;0.80;;
17235;SDS011;8734;59.272;17.780;2023-02-28T07:16:36;3.60;;;1.10;;
17235;SDS011;8734;59.272;17.780;2023-02-28T07:19:04;6.60;;;1.20;;
17235;SDS011;8734;59.272;17.780;2023-02-28T07:21:32;7.53;;;2.00;;
17235;SDS011;8734;59.272;17.780;2023-02-28T07:24:01;9.20;;;1.73;;
17235;SDS011;8734;59.272;17.780;2023-02-28T07:26:31;7.57;;;2.60;;
17235;SDS011;8734;59.272;17.780;2023-02-28T07:29:00;7.77;;;2.03;;
17235;SDS011;8734;59.272;17.780;2023-02-28T07:31:29;6.47;;;1.90;;
17235;SDS011;8734;59.272;17.780;2023-02-28T07:33:58;7.50;;;2.07;;
17235;SDS011;8734;59.272;17.780;2023-02-28T07:36:26;5.83;;;2.10;;
17235;SDS011;8734;59.272;17.780;2023-02-28T07:38:55;3.77;;;1.83;;
17235;SDS011;8734;59.272;17.780;2023-02-28T07:41:24;2.53;;;1.40;;
17235;SDS011;8734;59.272;17.780;2023-02-28T07:43:56;2.30;;;1.37;;
17235;SDS011;8734;59.272;17.780;2023-02-28T07:46:26;0.80;;;0.80;;
17235;SDS011;8734;59.272;17.780;2023-02-28T07:48:56;0.83;;;0.60;;
17235;SDS011;8734;59.272;17.780;2023-02-28T07:51:26;0.63;;;0.57;;
17235;SDS011;8734;59.272;17.780;2023-02-28T07:53:55;3.40;;;0.80;;
17235;SDS011;8734;59.272;17.780;2023-02-28T07:56:23;1.50;;;0.90;;
17235;SDS011;8734;59.272;17.780;2023-02-28T07:58:52;3.00;;;0.80;;
17235;SDS011;8734;59.272;17.780;2023-02-28T08:01:22;2.13;;;1.00;;
17235;SDS011;8734;59.272;17.780;2023-02-28T08:03:50;2.57;;;1.10;;
17235;SDS011;8734;59.272;17.780;2023-02-28T08:06:21;3.83;;;1.40;;
17235;SDS011;8734;59.272;17.780;2023-02-28T08:08:52;3.70;;;1.20;;
17235;SDS011;8734;59.272;17.780;2023-02-28T08:11:22;6.37;;;1.40;;
17235;SDS011;8734;59.272;17.780;2023-02-28T08:13:51;3.77;;;1.50;;
17235;SDS011;8734;59.272;17.780;2023-02-28T08:16:19;5.40;;;1.50;;
17235;SDS011;8734;59.272;17.780;2023-02-28T08:18:50;3.83;;;1.70;;
17235;SDS011;8734;59.272;17.780;2023-02-28T08:21:20;5.93;;;1.50;;
17235;SDS011;8734;59.272;17.780;2023-02-28T08:23:49;3.77;;;1.30;;
17235;SDS011;8734;59.272;17.780;2023-02-28T08:26:18;4.63;;;1.13;;
17235;SDS011;8734;59.272;17.780;2023-02-28T08:28:47;5.20;;;1.53;;
17235;SDS011;8734;59.272;17.780;2023-02-28T08:31:16;4.10;;;1.67;;
17235;SDS011;8734;59.272;17.780;2023-02-28T08:33:45;4.77;;;1.37;;
17235;SDS011;8734;59.272;17.780;2023-02-28T08:36:16;2.80;;;1.23;;
17235;SDS011;8734;59.272;17.780;2023-02-28T08:38:45;2.10;;;1.27;;
17235;SDS011;8734;59.272;17.780;2023-02-28T08:41:13;1.10;;;0.70;;
17235;SDS011;8734;59.272;17.780;2023-02-28T08:43:42;0.70;;;0.50;;
17235;SDS011;8734;59.272;17.780;2023-02-28T08:46:11;0.60;;;0.47;;
17235;SDS011;8734;59.272;17.780;2023-02-28T08:48:40;1.30;;;0.70;;
17235;SDS011;8734;59.272;17.780;2023-02-28T08:51:09;0.50;;;0.50;;
17235;SDS011;8734;59.272;17.780;2023-02-28T08:53:40;0.60;;;0.60;;
17235;SDS011;8734;59.272;17.780;2023-02-28T08:56:09;1.33;;;0.70;;
17235;SDS011;8734;59.272;17.780;2023-02-28T08:58:39;0.53;;;0.53;;
17235;SDS011;8734;59.272;17.780;2023-02-28T09:01:08;1.40;;;0.70;;
17235;SDS011;8734;59.272;17.780;2023-02-28T09:03:38;0.50;;;0.50;;
17235;SDS011;8734;59.272;17.780;2023-02-28T09:06:08;2.90;;;0.60;;
17235;SDS011;8734;59.272;17.780;2023-02-28T09:08:37;1.37;;;1.00;;
17235;SDS011;8734;59.272;17.780;2023-02-28T09:11:07;1.20;;;0.70;;
17235;SDS011;8734;59.272;17.780;2023-02-28T09:13:36;1.70;;;0.67;;
17235;SDS011;8734;59.272;17.780;2023-02-28T09:16:06;1.80;;;0.70;;
17235;SDS011;8734;59.272;17.780;2023-02-28T09:18:35;0.93;;;0.80;;
17235;SDS011;8734;59.272;17.780;2023-02-28T09:21:05;0.57;;;0.50;;
17235;SDS011;8734;59.272;17.780;2023-02-28T09:23:34;1.33;;;0.60;;
17235;SDS011;8734;59.272;17.780;2023-02-28T09:26:04;1.60;;;0.77;;
17235;SDS011;8734;59.272;17.780;2023-02-28T09:28:35;0.77;;;0.57;;
17235;SDS011;8734;59.272;17.780;2023-02-28T09:31:03;0.50;;;0.50;;
17235;SDS011;8734;59.272;17.780;2023-02-28T09:33:32;0.70;;;0.70;;
17235;SDS011;8734;59.272;17.780;2023-02-28T09:36:01;1.57;;;0.60;;
17235;SDS011;8734;59.272;17.780;2023-02-28T09:38:30;0.60;;;0.60;;
17235;SDS011;8734;59.272;17.780;2023-02-28T09:41:00;0.97;;;0.60;;
17235;SDS011;8734;59.272;17.780;2023-02-28T09:43:32;0.53;;;0.53;;
17235;SDS011;8734;59.272;17.780;2023-02-28T09:46:06;0.60;;;0.60;;
17235;SDS011;8734;59.272;17.780;2023-02-28T09:48:43;1.03;;;0.80;;
17235;SDS011;8734;59.272;17.780;2023-02-28T09:51:16;0.60;;;0.50;;
17235;SDS011;8734;59.272;17.780;2023-02-28T09:53:55;1.63;;;0.90;;
17235;SDS011;8734;59.272;17.780;2023-02-28T09:56:28;1.20;;;1.00;;
17235;SDS011;8734;59.272;17.780;2023-02-28T09:59:02;1.73;;;1.00;;
17235;SDS011;8734;59.272;17.780;2023-02-28T10:01:39;1.63;;;0.70;;
17235;SDS011;8734;59.272;17.780;2023-02-28T10:04:16;2.13;;;0.60;;
17235;SDS011;8734;59.272;17.780;2023-02-28T10:06:58;2.83;;;0.70;;
17235;SDS011;8734;59.272;17.780;2023-02-28T10:09:31;0.87;;;0.60;;
17235;SDS011;8734;59.272;17.780;2023-02-28T10:12:02;0.60;;;0.60;;
17235;SDS011;8734;59.272;17.780;2023-02-28T10:14:34;1.10;;;0.60;;
17235;SDS011;8734;59.272;17.780;2023-02-28T10:17:04;0.50;;;0.50;;
17235;SDS011;8734;59.272;17.780;2023-02-28T10:19:40;0.70;;;0.50;;
17235;SDS011;8734;59.272;17.780;2023-02-28T10:22:14;0.40;;;0.40;;
17235;SDS011;8734;59.272;17.780;2023-02-28T10:24:46;0.50;;;0.40;;
17235;SDS011;8734;59.272;17.780;2023-02-28T10:27:16;1.70;;;0.70;;
17235;SDS011;8734;59.272;17.780;2023-02-28T10:29:48;0.50;;;0.50;;
17235;SDS011;8734;59.272;17.780;2023-02-28T10:32:19;0.40;;;0.40;;
17235;SDS011;8734;59.272;17.780;2023-02-28T10:34:51;0.70;;;0.50;;
17235;SDS011;8734;59.272;17.780;2023-02-28T10:37:21;0.60;;;0.60;;
17235;SDS011;8734;59.272;17.780;2023-02-28T10:39:50;0.40;;;0.40;;
17235;SDS011;8734;59.272;17.780;2023-02-28T10:42:19;0.63;;;0.50;;
17235;SDS011;8734;59.272;17.780;2023-02-28T10:45:06;0.70;;;0.50;;
17235;SDS011;8734;59.272;17.780;2023-02-28T10:47:41;1.33;;;0.40;;
17235;SDS011;8734;59.272;17.780;2023-02-28T10:50:31;0.50;;;0.50;;
17235;SDS011;8734;59.272;17.780;2023-02-28T10:53:10;0.60;;;0.50;;
17235;SDS011;8734;59.272;17.780;2023-02-28T10:55:44;0.83;;;0.67;;
17235;SDS011;8734;59.272;17.780;2023-02-28T10:58:21;0.50;;;0.50;;
17235;SDS011;8734;59.272;17.780;2023-02-28T11:00:52;0.57;;;0.40;;
17235;SDS011;8734;59.272;17.780;2023-02-28T11:03:25;0.40;;;0.40;;
17235;SDS011;8734;59.272;17.780;2023-02-28T11:05:58;1.53;;;0.60;;
17235;SDS011;8734;59.272;17.780;2023-02-28T11:08:32;0.63;;;0.40;;
17235;SDS011;8734;59.272;17.780;2023-02-28T11:11:03;0.70;;;0.37;;
17235;SDS011;8734;59.272;17.780;2023-02-28T11:13:35;0.77;;;0.70;;
17235;SDS011;8734;59.272;17.780;2023-02-28T11:16:06;0.40;;;0.40;;
17235;SDS011;8734;59.272;17.780;2023-02-28T11:18:39;0.60;;;0.60;;
17235;SDS011;8734;59.272;17.780;2023-02-28T11:21:15;4.33;;;0.40;;
17235;SDS011;8734;59.272;17.780;2023-02-28T11:23:47;0.97;;;0.77;;
17235;SDS011;8734;59.272;17.780;2023-02-28T11:29:10;0.50;;;0.50;;
17235;SDS011;8734;59.272;17.780;2023-02-28T11:31:44;0.73;;;0.70;;
17235;SDS011;8734;59.272;17.780;2023-02-28T11:34:30;0.47;;;0.40;;
17235;SDS011;8734;59.272;17.780;2023-02-28T11:36:59;1.67;;;0.87;;
17235;SDS011;8734;59.272;17.780;2023-02-28T11:39:32;1.50;;;0.50;;
17235;SDS011;8734;59.272;17.780;2023-02-28T11:42:04;0.40;;;0.40;;
17235;SDS011;8734;59.272;17.780;2023-02-28T11:44:44;0.40;;;0.40;;
17235;SDS011;8734;59.272;17.780;2023-02-28T11:47:26;0.67;;;0.50;;
17235;SDS011;8734;59.272;17.780;2023-02-28T11:50:04;0.60;;;0.50;;
17235;SDS011;8734;59.272;17.780;2023-02-28T11:52:45;0.50;;;0.50;;
17235;SDS011;8734;59.272;17.780;2023-02-28T11:55:20;0.93;;;0.60;;
17235;SDS011;8734;59.272;17.780;2023-02-28T11:58:02;3.60;;;0.50;;
17235;SDS011;8734;59.272;17.780;2023-02-28T12:00:52;0.50;;;0.40;;
17235;SDS011;8734;59.272;17.780;2023-02-28T12:03:38;1.10;;;0.50;;
17235;SDS011;8734;59.272;17.780;2023-02-28T12:06:15;0.77;;;0.50;;
17235;SDS011;8734;59.272;17.780;2023-02-28T12:11:40;0.40;;;0.40;;
17235;SDS011;8734;59.272;17.780;2023-02-28T12:17:22;0.70;;;0.43;;
17235;SDS011;8734;59.272;17.780;2023-02-28T12:20:08;1.33;;;0.60;;
17235;SDS011;8734;59.272;17.780;2023-02-28T12:22:45;0.40;;;0.40;;
17235;SDS011;8734;59.272;17.780;2023-02-28T12:25:31;0.63;;;0.43;;
17235;SDS011;8734;59.272;17.780;2023-02-28T12:28:25;0.97;;;0.40;;
17235;SDS011;8734;59.272;17.780;2023-02-28T12:30:58;0.30;;;0.30;;
17235;SDS011;8734;59.272;17.780;2023-02-28T12:33:31;4.03;;;0.50;;
17235;SDS011;8734;59.272;17.780;2023-02-28T12:36:05;0.93;;;0.43;;
17235;SDS011;8734;59.272;17.780;2023-02-28T12:38:40;0.40;;;0.40;;
17235;SDS011;8734;59.272;17.780;2023-02-28T12:41:12;0.40;;;0.40;;
17235;SDS011;8734;59.272;17.780;2023-02-28T12:43:44;1.03;;;0.47;;
17235;SDS011;8734;59.272;17.780;2023-02-28T12:46:18;0.30;;;0.30;;
17235;SDS011;8734;59.272;17.780;2023-02-28T12:48:52;1.17;;;0.60;;
17235;SDS011;8734;59.272;17.780;2023-02-28T12:51:25;0.67;;;0.40;;
17235;SDS011;8734;59.272;17.780;2023-02-28T12:53:58;0.70;;;0.50;;
17235;SDS011;8734;59.272;17.780;2023-02-28T12:56:34;0.87;;;0.53;;
17235;SDS011;8734;59.272;17.780;2023-02-28T12:59:11;0.40;;;0.40;;
17235;SDS011;8734;59.272;17.780;2023-02-28T13:01:50;0.40;;;0.40;;
17235;SDS011;8734;59.272;17.780;2023-02-28T13:07:28;0.93;;;0.50;;
17235;SDS011;8734;59.272;17.780;2023-02-28T13:10:09;0.60;;;0.60;;
17235;SDS011;8734;59.272;17.780;2023-02-28T13:12:37;2.53;;;0.60;;
17235;SDS011;8734;59.272;17.780;2023-02-28T13:15:17;0.40;;;0.40;;
17235;SDS011;8734;59.272;17.780;2023-02-28T13:17:51;0.73;;;0.50;;
17235;SDS011;8734;59.272;17.780;2023-02-28T13:20:21;0.40;;;0.40;;
17235;SDS011;8734;59.272;17.780;2023-02-28T13:22:54;1.20;;;0.50;;
17235;SDS011;8734;59.272;17.780;2023-02-28T13:34:40;0.73;;;0.50;;
17235;SDS011;8734;59.272;17.780;2023-02-28T13:37:32;1.23;;;0.57;;
17235;SDS011;8734;59.272;17.780;2023-02-28T13:43:06;0.83;;;0.50;;
17235;SDS011;8734;59.272;17.780;2023-02-28T13:45:36;2.30;;;0.57;;
17235;SDS011;8734;59.272;17.780;2023-02-28T13:48:15;0.60;;;0.50;;
17235;SDS011;8734;59.272;17.780;2023-02-28T13:50:45;2.70;;;0.60;;
17235;SDS011;8734;59.272;17.780;2023-02-28T13:56:07;0.80;;;0.60;;
17235;SDS011;8734;59.272;17.780;2023-02-28T13:58:49;1.67;;;0.50;;
17235;SDS011;8734;59.272;17.780;2023-02-28T14:01:34;0.90;;;0.60;;
17235;SDS011;8734;59.272;17.780;2023-02-28T14:07:19;3.67;;;0.70;;
17235;SDS011;8734;59.272;17.780;2023-02-28T14:09:53;1.60;;;0.60;;
17235;SDS011;8734;59.272;17.780;2023-02-28T14:15:26;2.43;;;0.53;;
17235;SDS011;8734;59.272;17.780;2023-02-28T14:18:10;1.50;;;0.50;;
17235;SDS011;8734;59.272;17.780;2023-02-28T14:20:44;9.20;;;0.70;;
17235;SDS011;8734;59.272;17.780;2023-02-28T14:23:17;0.63;;;0.60;;
17235;SDS011;8734;59.272;17.780;2023-02-28T14:25:55;1.53;;;0.67;;
17235;SDS011;8734;59.272;17.780;2023-02-28T14:28:41;0.93;;;0.60;;
17235;SDS011;8734;59.272;17.780;2023-02-28T14:31:22;1.07;;;0.63;;
17235;SDS011;8734;59.272;17.780;2023-02-28T14:34:03;0.40;;;0.40;;
17235;SDS011;8734;59.272;17.780;2023-02-28T14:36:42;0.60;;;0.60;;
17235;SDS011;8734;59.272;17.780;2023-02-28T14:39:12;0.67;;;0.50;;
17235;SDS011;8734;59.272;17.780;2023-02-28T14:41:42;0.43;;;0.43;;
17235;SDS011;8734;59.272;17.780;2023-02-28T14:44:14;1.27;;;0.73;;
17235;SDS011;8734;59.272;17.780;2023-02-28T14:46:45;0.53;;;0.50;;
17235;SDS011;8734;59.272;17.780;2023-02-28T14:49:18;1.40;;;0.70;;
17235;SDS011;8734;59.272;17.780;2023-02-28T14:51:49;1.10;;;0.57;;
17235;SDS011;8734;59.272;17.780;2023-02-28T14:54:29;2.43;;;0.60;;
17235;SDS011;8734;59.272;17.780;2023-02-28T14:56:57;0.70;;;0.60;;
17235;SDS011;8734;59.272;17.780;2023-02-28T14:59:28;2.47;;;0.67;;
17235;SDS011;8734;59.272;17.780;2023-02-28T15:02:18;0.47;;;0.47;;
17235;SDS011;8734;59.272;17.780;2023-02-28T15:04:55;0.87;;;0.60;;
17235;SDS011;8734;59.272;17.780;2023-02-28T15:07:24;0.50;;;0.50;;
17235;SDS011;8734;59.272;17.780;2023-02-28T15:10:09;1.77;;;1.37;;
17235;SDS011;8734;59.272;17.780;2023-02-28T15:12:48;1.37;;;0.70;;
17235;SDS011;8734;59.272;17.780;2023-02-28T15:15:22;0.60;;;0.60;;
17235;SDS011;8734;59.272;17.780;2023-02-28T15:18:06;2.50;;;0.67;;
17235;SDS011;8734;59.272;17.780;2023-02-28T15:20:38;0.60;;;0.60;;
17235;SDS011;8734;59.272;17.780;2023-02-28T15:23:08;1.23;;;0.60;;
17235;SDS011;8734;59.272;17.780;2023-02-28T15:25:37;1.07;;;0.70;;
17235;SDS011;8734;59.272;17.780;2023-02-28T15:28:10;1.10;;;0.60;;
17235;SDS011;8734;59.272;17.780;2023-02-28T15:30:51;2.17;;;0.80;;
17235;SDS011;8734;59.272;17.780;2023-02-28T15:33:22;1.53;;;0.77;;
17235;SDS011;8734;59.272;17.780;2023-02-28T15:36:03;0.60;;;0.60;;
17235;SDS011;8734;59.272;17.780;2023-02-28T15:38:38;1.77;;;0.80;;
17235;SDS011;8734;59.272;17.780;2023-02-28T15:41:20;1.53;;;0.77;;
17235;SDS011;8734;59.272;17.780;2023-02-28T15:46:55;0.87;;;0.67;;
17235;SDS011;8734;59.272;17.780;2023-02-28T15:49:28;1.33;;;0.60;;
17235;SDS011;8734;59.272;17.780;2023-02-28T15:52:10;0.60;;;0.60;;
17235;SDS011;8734;59.272;17.780;2023-02-28T15:54:42;0.70;;;0.70;;
17235;SDS011;8734;59.272;17.780;2023-02-28T15:57:13;0.97;;;0.70;;
17235;SDS011;8734;59.272;17.780;2023-02-28T15:59:48;0.77;;;0.60;;